Impacts TAF Board INFO
FOR SITUATIONAL AWARENESS. NOT TO BE USED FOR FLIGHT PLANNING PURPOSES.
IDs:

KSFO - San Francisco Intl, CA, US

Issued at 0521 UTC 19 Nov 2017
Updated at 0649 UTC 19 Nov 2017
Potential Impact None Slight Moderate High
Time<<20/07Z 20/08Z 20/09Z 20/10Z 20/11Z 20/12Z 20/13Z 20/14Z 20/15Z 20/16Z 20/17Z 20/18Z 20/19Z
Type PRVL PRVL PRVL PRVL PRVL
VIS >6 >6 >6 >6 >6
CIG 180 120 120 120 120
Cover BKN OVC OVC OVC OVC
FltCat VFR VFR VFR VFR VFR
WX -- -- -- -- --
WDir 280 280 280 280 280
WSpd 5 3 3 3 3
WGst -- -- -- -- --

Raw TAF
KSFO 190521Z 1906/2012 VRB03KT P6SM FEW250
  FM192000 33004KT P6SM BKN250
  FM200100 28005KT P6SM BKN180
  FM200800 28003KT P6SM OVC120


METAR Board
Radar Display
Forecast Discussion

FOR SITUATIONAL AWARENESS. NOT TO BE USED FOR FLIGHT PLANNING PURPOSES.